sensor_id;sensor_type;location;lat;lon;timestamp;P1;durP1;ratioP1;P2;durP2;ratioP2
27313;SDS011;14800;48.174;9.798;2023-02-28T00:00:16;5.32;;;3.95;;
27313;SDS011;14800;48.174;9.798;2023-02-28T00:02:43;6.20;;;3.70;;
27313;SDS011;14800;48.174;9.798;2023-02-28T00:05:10;5.80;;;3.88;;
27313;SDS011;14800;48.174;9.798;2023-02-28T00:07:37;6.40;;;4.00;;
27313;SDS011;14800;48.174;9.798;2023-02-28T00:10:04;5.30;;;3.70;;
27313;SDS011;14800;48.174;9.798;2023-02-28T00:12:32;8.95;;;4.05;;
27313;SDS011;14800;48.174;9.798;2023-02-28T00:15:02;9.07;;;3.58;;
27313;SDS011;14800;48.174;9.798;2023-02-28T00:17:30;6.40;;;3.95;;
27313;SDS011;14800;48.174;9.798;2023-02-28T00:19:56;7.30;;;4.00;;
27313;SDS011;14800;48.174;9.798;2023-02-28T00:22:22;5.68;;;3.88;;
27313;SDS011;14800;48.174;9.798;2023-02-28T00:24:47;6.50;;;3.50;;
27313;SDS011;14800;48.174;9.798;2023-02-28T00:27:13;5.13;;;3.90;;
27313;SDS011;14800;48.174;9.798;2023-02-28T00:29:39;5.15;;;3.58;;
27313;SDS011;14800;48.174;9.798;2023-02-28T00:32:05;5.70;;;3.38;;
27313;SDS011;14800;48.174;9.798;2023-02-28T00:34:31;3.80;;;3.25;;
27313;SDS011;14800;48.174;9.798;2023-02-28T00:37:02;7.25;;;3.70;;
27313;SDS011;14800;48.174;9.798;2023-02-28T00:39:33;6.28;;;3.60;;
27313;SDS011;14800;48.174;9.798;2023-02-28T00:41:59;5.50;;;3.70;;
27313;SDS011;14800;48.174;9.798;2023-02-28T00:44:25;4.93;;;3.40;;
27313;SDS011;14800;48.174;9.798;2023-02-28T00:46:50;6.53;;;3.70;;
27313;SDS011;14800;48.174;9.798;2023-02-28T00:49:16;7.28;;;3.60;;
27313;SDS011;14800;48.174;9.798;2023-02-28T00:51:42;6.13;;;3.50;;
27313;SDS011;14800;48.174;9.798;2023-02-28T00:54:08;5.25;;;3.58;;
27313;SDS011;14800;48.174;9.798;2023-02-28T00:56:33;5.78;;;3.45;;
27313;SDS011;14800;48.174;9.798;2023-02-28T00:58:59;5.07;;;3.70;;
27313;SDS011;14800;48.174;9.798;2023-02-28T01:01:25;5.38;;;3.53;;
27313;SDS011;14800;48.174;9.798;2023-02-28T01:03:50;6.75;;;3.80;;
27313;SDS011;14800;48.174;9.798;2023-02-28T01:06:16;5.10;;;3.58;;
27313;SDS011;14800;48.174;9.798;2023-02-28T01:08:41;6.10;;;3.33;;
27313;SDS011;14800;48.174;9.798;2023-02-28T01:11:11;5.05;;;3.35;;
27313;SDS011;14800;48.174;9.798;2023-02-28T01:13:38;4.90;;;3.30;;
27313;SDS011;14800;48.174;9.798;2023-02-28T01:16:03;5.18;;;3.28;;
27313;SDS011;14800;48.174;9.798;2023-02-28T01:18:29;6.80;;;4.00;;
27313;SDS011;14800;48.174;9.798;2023-02-28T01:20:55;5.10;;;3.58;;
27313;SDS011;14800;48.174;9.798;2023-02-28T01:23:21;7.10;;;3.63;;
27313;SDS011;14800;48.174;9.798;2023-02-28T01:25:48;5.05;;;3.17;;
27313;SDS011;14800;48.174;9.798;2023-02-28T01:28:17;5.55;;;3.33;;
27313;SDS011;14800;48.174;9.798;2023-02-28T01:30:42;5.85;;;3.70;;
27313;SDS011;14800;48.174;9.798;2023-02-28T01:33:12;3.80;;;2.97;;
27313;SDS011;14800;48.174;9.798;2023-02-28T01:35:37;6.57;;;3.50;;
27313;SDS011;14800;48.174;9.798;2023-02-28T01:38:03;4.85;;;3.58;;
27313;SDS011;14800;48.174;9.798;2023-02-28T01:40:28;7.78;;;4.00;;
27313;SDS011;14800;48.174;9.798;2023-02-28T01:42:54;5.60;;;3.30;;
27313;SDS011;14800;48.174;9.798;2023-02-28T01:45:22;4.78;;;3.28;;
27313;SDS011;14800;48.174;9.798;2023-02-28T01:47:55;5.78;;;3.05;;
27313;SDS011;14800;48.174;9.798;2023-02-28T01:50:29;3.97;;;3.28;;
27313;SDS011;14800;48.174;9.798;2023-02-28T01:52:59;4.95;;;3.10;;
27313;SDS011;14800;48.174;9.798;2023-02-28T01:55:27;5.22;;;3.17;;
27313;SDS011;14800;48.174;9.798;2023-02-28T01:57:56;8.85;;;3.42;;
27313;SDS011;14800;48.174;9.798;2023-02-28T02:00:25;3.70;;;3.05;;
27313;SDS011;14800;48.174;9.798;2023-02-28T02:02:53;4.70;;;3.10;;
27313;SDS011;14800;48.174;9.798;2023-02-28T02:05:22;3.97;;;3.08;;
27313;SDS011;14800;48.174;9.798;2023-02-28T02:08:12;4.50;;;3.17;;
27313;SDS011;14800;48.174;9.798;2023-02-28T02:13:37;5.15;;;3.22;;
27313;SDS011;14800;48.174;9.798;2023-02-28T02:35:34;6.38;;;3.40;;
27313;SDS011;14800;48.174;9.798;2023-02-28T02:38:26;5.15;;;3.20;;
27313;SDS011;14800;48.174;9.798;2023-02-28T02:46:52;6.93;;;3.50;;
27313;SDS011;14800;48.174;9.798;2023-02-28T02:49:00;6.03;;;3.30;;
27313;SDS011;14800;48.174;9.798;2023-02-28T02:51:29;6.10;;;3.70;;
27313;SDS011;14800;48.174;9.798;2023-02-28T02:54:00;6.65;;;3.97;;
27313;SDS011;14800;48.174;9.798;2023-02-28T02:56:33;4.65;;;3.35;;
27313;SDS011;14800;48.174;9.798;2023-02-28T02:59:01;5.10;;;3.53;;
27313;SDS011;14800;48.174;9.798;2023-02-28T03:01:31;5.30;;;3.60;;
27313;SDS011;14800;48.174;9.798;2023-02-28T03:04:00;5.38;;;3.50;;
27313;SDS011;14800;48.174;9.798;2023-02-28T03:06:32;6.10;;;3.83;;
27313;SDS011;14800;48.174;9.798;2023-02-28T03:08:59;5.07;;;3.75;;
27313;SDS011;14800;48.174;9.798;2023-02-28T03:11:25;5.97;;;3.55;;
27313;SDS011;14800;48.174;9.798;2023-02-28T03:22:37;5.82;;;3.85;;
27313;SDS011;14800;48.174;9.798;2023-02-28T03:33:02;4.53;;;3.72;;
27313;SDS011;14800;48.174;9.798;2023-02-28T03:35:49;5.35;;;3.53;;
27313;SDS011;14800;48.174;9.798;2023-02-28T03:40:55;6.03;;;3.92;;
27313;SDS011;14800;48.174;9.798;2023-02-28T03:43:28;6.15;;;3.75;;
27313;SDS011;14800;48.174;9.798;2023-02-28T03:45:58;6.18;;;3.67;;
27313;SDS011;14800;48.174;9.798;2023-02-28T03:48:34;4.50;;;3.53;;
27313;SDS011;14800;48.174;9.798;2023-02-28T03:53:42;7.05;;;3.90;;
27313;SDS011;14800;48.174;9.798;2023-02-28T03:56:20;4.93;;;3.58;;
27313;SDS011;14800;48.174;9.798;2023-02-28T03:59:10;6.00;;;4.07;;
27313;SDS011;14800;48.174;9.798;2023-02-28T04:01:53;5.53;;;4.00;;
27313;SDS011;14800;48.174;9.798;2023-02-28T04:04:20;5.93;;;3.92;;
27313;SDS011;14800;48.174;9.798;2023-02-28T04:06:47;6.00;;;3.90;;
27313;SDS011;14800;48.174;9.798;2023-02-28T04:09:25;5.65;;;3.97;;
27313;SDS011;14800;48.174;9.798;2023-02-28T04:11:51;5.75;;;4.10;;
27313;SDS011;14800;48.174;9.798;2023-02-28T04:14:18;5.85;;;4.13;;
27313;SDS011;14800;48.174;9.798;2023-02-28T04:16:44;6.68;;;3.95;;
27313;SDS011;14800;48.174;9.798;2023-02-28T04:19:11;7.75;;;3.92;;
27313;SDS011;14800;48.174;9.798;2023-02-28T04:21:39;6.13;;;4.10;;
27313;SDS011;14800;48.174;9.798;2023-02-28T04:24:05;6.65;;;4.35;;
27313;SDS011;14800;48.174;9.798;2023-02-28T04:26:33;6.13;;;3.80;;
27313;SDS011;14800;48.174;9.798;2023-02-28T04:29:01;5.22;;;3.67;;
27313;SDS011;14800;48.174;9.798;2023-02-28T04:31:27;7.57;;;4.47;;
27313;SDS011;14800;48.174;9.798;2023-02-28T04:33:53;5.75;;;4.20;;
27313;SDS011;14800;48.174;9.798;2023-02-28T04:36:18;6.93;;;4.28;;
27313;SDS011;14800;48.174;9.798;2023-02-28T04:38:44;7.82;;;4.35;;
27313;SDS011;14800;48.174;9.798;2023-02-28T04:41:11;6.85;;;4.38;;
27313;SDS011;14800;48.174;9.798;2023-02-28T04:43:37;6.68;;;4.40;;
27313;SDS011;14800;48.174;9.798;2023-02-28T04:46:04;7.05;;;4.45;;
27313;SDS011;14800;48.174;9.798;2023-02-28T04:48:31;6.93;;;4.60;;
27313;SDS011;14800;48.174;9.798;2023-02-28T04:51:02;5.68;;;4.25;;
27313;SDS011;14800;48.174;9.798;2023-02-28T04:53:33;8.15;;;4.80;;
27313;SDS011;14800;48.174;9.798;2023-02-28T04:55:59;7.45;;;4.82;;
27313;SDS011;14800;48.174;9.798;2023-02-28T04:58:25;8.32;;;4.65;;
27313;SDS011;14800;48.174;9.798;2023-02-28T05:00:52;9.00;;;4.63;;
27313;SDS011;14800;48.174;9.798;2023-02-28T05:03:18;7.70;;;5.07;;
27313;SDS011;14800;48.174;9.798;2023-02-28T05:05:45;7.13;;;4.60;;
27313;SDS011;14800;48.174;9.798;2023-02-28T05:08:11;6.50;;;4.97;;
27313;SDS011;14800;48.174;9.798;2023-02-28T05:10:37;7.65;;;4.88;;
27313;SDS011;14800;48.174;9.798;2023-02-28T05:13:02;7.00;;;4.95;;
27313;SDS011;14800;48.174;9.798;2023-02-28T05:15:28;7.05;;;4.88;;
27313;SDS011;14800;48.174;9.798;2023-02-28T05:17:53;6.57;;;5.10;;
27313;SDS011;14800;48.174;9.798;2023-02-28T05:20:19;9.48;;;5.32;;
27313;SDS011;14800;48.174;9.798;2023-02-28T05:22:46;9.55;;;4.72;;
27313;SDS011;14800;48.174;9.798;2023-02-28T05:25:13;7.05;;;5.10;;
27313;SDS011;14800;48.174;9.798;2023-02-28T05:27:42;7.90;;;5.28;;
27313;SDS011;14800;48.174;9.798;2023-02-28T05:30:08;8.60;;;5.35;;
27313;SDS011;14800;48.174;9.798;2023-02-28T05:32:38;9.88;;;5.50;;
27313;SDS011;14800;48.174;9.798;2023-02-28T05:35:08;8.57;;;5.30;;
27313;SDS011;14800;48.174;9.798;2023-02-28T05:37:35;9.20;;;5.30;;
27313;SDS011;14800;48.174;9.798;2023-02-28T05:40:01;8.45;;;5.80;;
27313;SDS011;14800;48.174;9.798;2023-02-28T05:42:27;7.93;;;5.47;;
27313;SDS011;14800;48.174;9.798;2023-02-28T05:44:53;7.25;;;5.35;;
27313;SDS011;14800;48.174;9.798;2023-02-28T05:47:18;9.35;;;5.50;;
27313;SDS011;14800;48.174;9.798;2023-02-28T05:49:44;10.07;;;5.22;;
27313;SDS011;14800;48.174;9.798;2023-02-28T05:52:09;8.32;;;6.22;;
27313;SDS011;14800;48.174;9.798;2023-02-28T05:54:35;9.48;;;5.90;;
27313;SDS011;14800;48.174;9.798;2023-02-28T05:57:01;9.48;;;6.35;;
27313;SDS011;14800;48.174;9.798;2023-02-28T05:59:26;11.35;;;6.00;;
27313;SDS011;14800;48.174;9.798;2023-02-28T06:01:52;9.93;;;6.20;;
27313;SDS011;14800;48.174;9.798;2023-02-28T06:04:18;8.95;;;6.20;;
27313;SDS011;14800;48.174;9.798;2023-02-28T06:06:46;10.30;;;6.00;;
27313;SDS011;14800;48.174;9.798;2023-02-28T06:09:12;8.20;;;5.70;;
27313;SDS011;14800;48.174;9.798;2023-02-28T06:11:38;8.48;;;6.03;;
27313;SDS011;14800;48.174;9.798;2023-02-28T06:14:04;10.80;;;6.57;;
27313;SDS011;14800;48.174;9.798;2023-02-28T06:16:30;10.05;;;6.28;;
27313;SDS011;14800;48.174;9.798;2023-02-28T06:18:57;11.93;;;6.40;;
27313;SDS011;14800;48.174;9.798;2023-02-28T06:21:24;11.02;;;6.30;;
27313;SDS011;14800;48.174;9.798;2023-02-28T06:23:50;9.43;;;6.20;;
27313;SDS011;14800;48.174;9.798;2023-02-28T06:26:15;11.50;;;7.05;;
27313;SDS011;14800;48.174;9.798;2023-02-28T06:28:41;10.52;;;6.95;;
27313;SDS011;14800;48.174;9.798;2023-02-28T06:31:08;11.80;;;7.18;;
27313;SDS011;14800;48.174;9.798;2023-02-28T06:33:34;13.32;;;7.10;;
27313;SDS011;14800;48.174;9.798;2023-02-28T06:36:01;12.15;;;6.95;;
27313;SDS011;14800;48.174;9.798;2023-02-28T06:38:27;10.07;;;6.47;;
27313;SDS011;14800;48.174;9.798;2023-02-28T06:40:53;10.15;;;7.00;;
27313;SDS011;14800;48.174;9.798;2023-02-28T06:43:20;11.80;;;7.57;;
27313;SDS011;14800;48.174;9.798;2023-02-28T06:45:46;9.55;;;6.68;;
27313;SDS011;14800;48.174;9.798;2023-02-28T06:48:12;12.00;;;7.28;;
27313;SDS011;14800;48.174;9.798;2023-02-28T06:50:37;13.25;;;7.75;;
27313;SDS011;14800;48.174;9.798;2023-02-28T06:53:03;12.02;;;7.30;;
27313;SDS011;14800;48.174;9.798;2023-02-28T06:55:29;11.43;;;7.72;;
27313;SDS011;14800;48.174;9.798;2023-02-28T06:57:54;10.30;;;7.30;;
27313;SDS011;14800;48.174;9.798;2023-02-28T07:00:20;11.93;;;7.43;;
27313;SDS011;14800;48.174;9.798;2023-02-28T07:02:46;12.77;;;7.47;;
27313;SDS011;14800;48.174;9.798;2023-02-28T07:05:12;11.80;;;7.30;;
27313;SDS011;14800;48.174;9.798;2023-02-28T07:07:38;12.55;;;7.80;;
27313;SDS011;14800;48.174;9.798;2023-02-28T07:10:08;10.32;;;7.28;;
27313;SDS011;14800;48.174;9.798;2023-02-28T07:12:37;11.23;;;7.47;;
27313;SDS011;14800;48.174;9.798;2023-02-28T07:15:04;12.93;;;7.55;;
27313;SDS011;14800;48.174;9.798;2023-02-28T07:17:30;13.20;;;7.88;;
27313;SDS011;14800;48.174;9.798;2023-02-28T07:19:56;11.32;;;8.07;;
27313;SDS011;14800;48.174;9.798;2023-02-28T07:22:21;14.05;;;8.38;;
27313;SDS011;14800;48.174;9.798;2023-02-28T07:24:47;12.32;;;8.30;;
27313;SDS011;14800;48.174;9.798;2023-02-28T07:27:13;10.93;;;7.75;;
27313;SDS011;14800;48.174;9.798;2023-02-28T07:29:48;14.13;;;7.80;;
27313;SDS011;14800;48.174;9.798;2023-02-28T07:32:17;12.52;;;8.00;;
27313;SDS011;14800;48.174;9.798;2023-02-28T07:34:43;14.30;;;8.82;;
27313;SDS011;14800;48.174;9.798;2023-02-28T07:37:09;16.13;;;8.63;;
27313;SDS011;14800;48.174;9.798;2023-02-28T07:39:35;13.00;;;8.13;;
27313;SDS011;14800;48.174;9.798;2023-02-28T07:42:04;13.75;;;8.75;;
27313;SDS011;14800;48.174;9.798;2023-02-28T07:44:31;13.60;;;8.98;;
27313;SDS011;14800;48.174;9.798;2023-02-28T07:46:57;14.90;;;8.88;;
27313;SDS011;14800;48.174;9.798;2023-02-28T07:49:23;14.95;;;9.20;;
27313;SDS011;14800;48.174;9.798;2023-02-28T07:51:48;14.57;;;9.80;;
27313;SDS011;14800;48.174;9.798;2023-02-28T07:54:14;14.57;;;9.75;;
27313;SDS011;14800;48.174;9.798;2023-02-28T07:56:39;13.45;;;9.13;;
27313;SDS011;14800;48.174;9.798;2023-02-28T07:59:05;15.27;;;8.95;;
27313;SDS011;14800;48.174;9.798;2023-02-28T08:01:30;14.90;;;9.63;;
27313;SDS011;14800;48.174;9.798;2023-02-28T08:03:56;13.35;;;9.02;;
27313;SDS011;14800;48.174;9.798;2023-02-28T08:06:22;14.52;;;8.98;;
27313;SDS011;14800;48.174;9.798;2023-02-28T08:08:49;17.27;;;9.75;;
27313;SDS011;14800;48.174;9.798;2023-02-28T08:11:16;14.70;;;9.07;;
27313;SDS011;14800;48.174;9.798;2023-02-28T08:13:42;16.10;;;9.07;;
27313;SDS011;14800;48.174;9.798;2023-02-28T08:16:09;14.57;;;9.40;;
27313;SDS011;14800;48.174;9.798;2023-02-28T08:18:35;14.13;;;9.10;;
27313;SDS011;14800;48.174;9.798;2023-02-28T08:21:10;16.98;;;9.52;;
27313;SDS011;14800;48.174;9.798;2023-02-28T08:23:36;14.18;;;9.30;;
27313;SDS011;14800;48.174;9.798;2023-02-28T08:26:02;15.88;;;9.98;;
27313;SDS011;14800;48.174;9.798;2023-02-28T08:28:28;15.35;;;10.13;;
27313;SDS011;14800;48.174;9.798;2023-02-28T08:30:54;16.08;;;10.65;;
27313;SDS011;14800;48.174;9.798;2023-02-28T08:33:20;17.30;;;11.02;;
27313;SDS011;14800;48.174;9.798;2023-02-28T08:35:46;14.68;;;10.43;;
27313;SDS011;14800;48.174;9.798;2023-02-28T08:38:11;16.65;;;10.07;;
27313;SDS011;14800;48.174;9.798;2023-02-28T08:40:37;16.23;;;10.27;;
27313;SDS011;14800;48.174;9.798;2023-02-28T08:43:02;15.50;;;10.65;;
27313;SDS011;14800;48.174;9.798;2023-02-28T08:45:28;17.42;;;10.77;;
27313;SDS011;14800;48.174;9.798;2023-02-28T08:47:54;16.35;;;10.40;;
27313;SDS011;14800;48.174;9.798;2023-02-28T08:50:20;16.38;;;10.32;;
27313;SDS011;14800;48.174;9.798;2023-02-28T08:52:46;15.43;;;10.35;;
27313;SDS011;14800;48.174;9.798;2023-02-28T08:55:12;13.95;;;9.55;;
27313;SDS011;14800;48.174;9.798;2023-02-28T08:57:37;16.00;;;10.50;;
27313;SDS011;14800;48.174;9.798;2023-02-28T09:00:03;20.77;;;10.77;;
27313;SDS011;14800;48.174;9.798;2023-02-28T09:02:30;18.80;;;11.15;;
27313;SDS011;14800;48.174;9.798;2023-02-28T09:04:56;17.23;;;10.93;;
27313;SDS011;14800;48.174;9.798;2023-02-28T09:07:23;19.23;;;11.57;;
27313;SDS011;14800;48.174;9.798;2023-02-28T09:09:48;17.05;;;11.25;;
27313;SDS011;14800;48.174;9.798;2023-02-28T09:12:21;20.73;;;10.77;;
27313;SDS011;14800;48.174;9.798;2023-02-28T09:14:47;15.73;;;10.88;;
27313;SDS011;14800;48.174;9.798;2023-02-28T09:17:12;17.50;;;11.07;;
27313;SDS011;14800;48.174;9.798;2023-02-28T09:19:38;16.88;;;10.73;;
27313;SDS011;14800;48.174;9.798;2023-02-28T09:22:04;16.83;;;11.38;;
27313;SDS011;14800;48.174;9.798;2023-02-28T09:24:29;17.98;;;10.70;;
27313;SDS011;14800;48.174;9.798;2023-02-28T09:26:56;18.15;;;10.88;;
27313;SDS011;14800;48.174;9.798;2023-02-28T09:29:22;18.08;;;11.63;;
27313;SDS011;14800;48.174;9.798;2023-02-28T09:31:48;18.30;;;11.75;;
27313;SDS011;14800;48.174;9.798;2023-02-28T09:34:14;17.88;;;11.30;;
27313;SDS011;14800;48.174;9.798;2023-02-28T09:36:40;17.98;;;11.25;;
27313;SDS011;14800;48.174;9.798;2023-02-28T09:39:06;15.43;;;10.70;;
27313;SDS011;14800;48.174;9.798;2023-02-28T09:41:36;18.13;;;11.25;;
27313;SDS011;14800;48.174;9.798;2023-02-28T09:44:10;17.50;;;11.20;;
27313;SDS011;14800;48.174;9.798;2023-02-28T09:46:43;17.77;;;11.63;;
27313;SDS011;14800;48.174;9.798;2023-02-28T09:49:13;17.85;;;12.10;;
27313;SDS011;14800;48.174;9.798;2023-02-28T09:54:16;19.00;;;11.80;;
27313;SDS011;14800;48.174;9.798;2023-02-28T09:59:30;15.60;;;10.82;;
27313;SDS011;14800;48.174;9.798;2023-02-28T10:02:23;19.40;;;11.57;;
27313;SDS011;14800;48.174;9.798;2023-02-28T10:05:02;20.45;;;10.88;;
27313;SDS011;14800;48.174;9.798;2023-02-28T10:10:45;16.92;;;11.35;;
27313;SDS011;14800;48.174;9.798;2023-02-28T10:16:10;16.73;;;10.60;;
27313;SDS011;14800;48.174;9.798;2023-02-28T10:21:23;19.17;;;11.88;;
27313;SDS011;14800;48.174;9.798;2023-02-28T10:23:55;18.10;;;12.27;;
27313;SDS011;14800;48.174;9.798;2023-02-28T10:26:36;19.38;;;12.18;;
27313;SDS011;14800;48.174;9.798;2023-02-28T10:29:01;21.95;;;12.82;;
27313;SDS011;14800;48.174;9.798;2023-02-28T10:31:28;21.58;;;12.45;;
27313;SDS011;14800;48.174;9.798;2023-02-28T10:33:54;17.48;;;12.13;;
27313;SDS011;14800;48.174;9.798;2023-02-28T10:36:20;25.35;;;14.88;;
27313;SDS011;14800;48.174;9.798;2023-02-28T10:38:46;48.95;;;28.05;;
27313;SDS011;14800;48.174;9.798;2023-02-28T10:41:18;19.45;;;13.18;;
27313;SDS011;14800;48.174;9.798;2023-02-28T10:43:57;17.65;;;11.55;;
27313;SDS011;14800;48.174;9.798;2023-02-28T10:46:45;19.73;;;11.70;;
27313;SDS011;14800;48.174;9.798;2023-02-28T10:49:21;17.33;;;11.70;;
27313;SDS011;14800;48.174;9.798;2023-02-28T10:51:54;17.73;;;11.52;;
27313;SDS011;14800;48.174;9.798;2023-02-28T10:54:23;17.08;;;11.05;;
27313;SDS011;14800;48.174;9.798;2023-02-28T10:59:34;16.85;;;11.85;;
27313;SDS011;14800;48.174;9.798;2023-02-28T11:02:00;19.60;;;11.52;;
27313;SDS011;14800;48.174;9.798;2023-02-28T11:07:27;18.95;;;11.18;;
27313;SDS011;14800;48.174;9.798;2023-02-28T11:09:51;17.20;;;10.98;;
27313;SDS011;14800;48.174;9.798;2023-02-28T11:15:46;16.15;;;10.93;;
27313;SDS011;14800;48.174;9.798;2023-02-28T11:20:24;16.25;;;11.25;;
27313;SDS011;14800;48.174;9.798;2023-02-28T11:22:51;17.15;;;11.40;;
27313;SDS011;14800;48.174;9.798;2023-02-28T11:25:20;18.20;;;11.48;;
27313;SDS011;14800;48.174;9.798;2023-02-28T11:27:50;16.83;;;11.80;;
27313;SDS011;14800;48.174;9.798;2023-02-28T11:30:25;19.48;;;12.45;;
27313;SDS011;14800;48.174;9.798;2023-02-28T11:32:56;17.27;;;11.82;;
27313;SDS011;14800;48.174;9.798;2023-02-28T11:35:35;16.48;;;11.52;;
27313;SDS011;14800;48.174;9.798;2023-02-28T11:38:03;21.65;;;12.23;;
27313;SDS011;14800;48.174;9.798;2023-02-28T11:40:34;18.27;;;12.07;;
27313;SDS011;14800;48.174;9.798;2023-02-28T11:46:06;17.00;;;11.15;;
27313;SDS011;14800;48.174;9.798;2023-02-28T11:58:59;16.35;;;11.52;;
27313;SDS011;14800;48.174;9.798;2023-02-28T12:02:17;17.67;;;11.63;;
27313;SDS011;14800;48.174;9.798;2023-02-28T12:13:48;16.42;;;10.63;;
27313;SDS011;14800;48.174;9.798;2023-02-28T12:27:32;20.20;;;13.00;;
27313;SDS011;14800;48.174;9.798;2023-02-28T12:32:42;18.55;;;12.82;;
27313;SDS011;14800;48.174;9.798;2023-02-28T12:35:13;16.30;;;11.67;;
27313;SDS011;14800;48.174;9.798;2023-02-28T12:37:54;16.95;;;12.55;;
27313;SDS011;14800;48.174;9.798;2023-02-28T12:40:49;22.17;;;14.88;;
27313;SDS011;14800;48.174;9.798;2023-02-28T12:43:34;18.38;;;12.88;;
27313;SDS011;14800;48.174;9.798;2023-02-28T12:46:14;18.33;;;11.35;;
27313;SDS011;14800;48.174;9.798;2023-02-28T12:51:17;17.65;;;12.35;;
27313;SDS011;14800;48.174;9.798;2023-02-28T12:53:53;20.08;;;12.13;;
27313;SDS011;14800;48.174;9.798;2023-02-28T12:59:12;17.45;;;11.77;;
27313;SDS011;14800;48.174;9.798;2023-02-28T13:07:30;18.42;;;11.90;;
27313;SDS011;14800;48.174;9.798;2023-02-28T13:10:04;17.50;;;11.48;;
27313;SDS011;14800;48.174;9.798;2023-02-28T13:12:32;17.98;;;11.88;;
27313;SDS011;14800;48.174;9.798;2023-02-28T13:15:08;19.48;;;12.23;;
27313;SDS011;14800;48.174;9.798;2023-02-28T13:17:49;16.98;;;11.07;;
27313;SDS011;14800;48.174;9.798;2023-02-28T13:20:18;17.95;;;11.25;;
27313;SDS011;14800;48.174;9.798;2023-02-28T13:22:52;17.75;;;11.68;;
27313;SDS011;14800;48.174;9.798;2023-02-28T13:27:54;16.77;;;11.93;;
27313;SDS011;14800;48.174;9.798;2023-02-28T13:35:45;17.08;;;11.98;;
27313;SDS011;14800;48.174;9.798;2023-02-28T13:38:24;16.42;;;11.82;;
27313;SDS011;14800;48.174;9.798;2023-02-28T13:41:21;16.02;;;11.45;;
27313;SDS011;14800;48.174;9.798;2023-02-28T13:44:03;15.52;;;10.48;;
27313;SDS011;14800;48.174;9.798;2023-02-28T13:46:29;17.67;;;11.30;;
27313;SDS011;14800;48.174;9.798;2023-02-28T13:48:54;16.60;;;10.98;;
27313;SDS011;14800;48.174;9.798;2023-02-28T13:51:43;14.88;;;10.52;;
27313;SDS011;14800;48.174;9.798;2023-02-28T14:05:43;15.23;;;10.77;;
27313;SDS011;14800;48.174;9.798;2023-02-28T14:08:16;15.55;;;10.65;;
27313;SDS011;14800;48.174;9.798;2023-02-28T14:10:46;16.23;;;10.80;;
27313;SDS011;14800;48.174;9.798;2023-02-28T14:16:02;16.30;;;11.20;;
27313;SDS011;14800;48.174;9.798;2023-02-28T14:18:31;15.77;;;10.77;;
27313;SDS011;14800;48.174;9.798;2023-02-28T14:37:27;14.30;;;10.02;;
27313;SDS011;14800;48.174;9.798;2023-02-28T14:39:54;15.63;;;10.73;;
27313;SDS011;14800;48.174;9.798;2023-02-28T14:42:31;14.70;;;10.80;;
27313;SDS011;14800;48.174;9.798;2023-02-28T14:44:59;16.33;;;10.93;;
27313;SDS011;14800;48.174;9.798;2023-02-28T14:47:27;15.45;;;10.55;;
27313;SDS011;14800;48.174;9.798;2023-02-28T14:49:56;14.23;;;10.45;;
27313;SDS011;14800;48.174;9.798;2023-02-28T14:52:27;15.75;;;11.20;;
27313;SDS011;14800;48.174;9.798;2023-02-28T14:54:58;14.95;;;10.65;;
27313;SDS011;14800;48.174;9.798;2023-02-28T14:57:34;14.52;;;10.50;;
27313;SDS011;14800;48.174;9.798;2023-02-28T15:00:09;15.35;;;10.68;;
27313;SDS011;14800;48.174;9.798;2023-02-28T15:02:45;15.75;;;11.18;;
27313;SDS011;14800;48.174;9.798;2023-02-28T15:07:45;14.27;;;10.63;;
27313;SDS011;14800;48.174;9.798;2023-02-28T15:10:25;16.00;;;10.88;;
27313;SDS011;14800;48.174;9.798;2023-02-28T15:12:58;17.23;;;10.82;;
27313;SDS011;14800;48.174;9.798;2023-02-28T15:15:27;17.38;;;11.23;;
27313;SDS011;14800;48.174;9.798;2023-02-28T15:17:58;17.13;;;10.95;;
27313;SDS011;14800;48.174;9.798;2023-02-28T15:20:25;15.63;;;11.07;;
27313;SDS011;14800;48.174;9.798;2023-02-28T15:22:52;15.63;;;10.70;;
27313;SDS011;14800;48.174;9.798;2023-02-28T15:25:21;16.08;;;10.98;;
27313;SDS011;14800;48.174;9.798;2023-02-28T15:27:49;16.65;;;10.65;;
27313;SDS011;14800;48.174;9.798;2023-02-28T15:35:33;15.00;;;10.70;;
27313;SDS011;14800;48.174;9.798;2023-02-28T15:40:38;14.55;;;10.23;;
27313;SDS011;14800;48.174;9.798;2023-02-28T15:43:14;15.60;;;10.30;;
27313;SDS011;14800;48.174;9.798;2023-02-28T15:45:46;17.42;;;10.80;;
27313;SDS011;14800;48.174;9.798;2023-02-28T15:48:16;14.45;;;9.85;;
27313;SDS011;14800;48.174;9.798;2023-02-28T15:50:47;16.25;;;10.93;;
27313;SDS011;14800;48.174;9.798;2023-02-28T15:53:35;15.60;;;9.80;;
27313;SDS011;14800;48.174;9.798;2023-02-28T15:56:26;17.20;;;10.20;;
27313;SDS011;14800;48.174;9.798;2023-02-28T15:59:00;16.00;;;10.90;;
27313;SDS011;14800;48.174;9.798;2023-02-28T16:01:32;24.48;;;14.98;;
27313;SDS011;14800;48.174;9.798;2023-02-28T16:04:12;15.82;;;11.27;;
27313;SDS011;14800;48.174;9.798;2023-02-28T16:06:41;15.55;;;10.85;;
27313;SDS011;14800;48.174;9.798;2023-02-28T16:09:22;14.98;;;10.50;;
27313;SDS011;14800;48.174;9.798;2023-02-28T16:11:48;17.20;;;11.43;;
27313;SDS011;14800;48.174;9.798;2023-02-28T16:14:16;17.92;;;12.50;;
27313;SDS011;14800;48.174;9.798;2023-02-28T16:16:45;14.60;;;11.23;;
27313;SDS011;14800;48.174;9.798;2023-02-28T16:19:12;15.35;;;10.80;;
27313;SDS011;14800;48.174;9.798;2023-02-28T16:21:38;13.27;;;10.48;;
27313;SDS011;14800;48.174;9.798;2023-02-28T16:24:04;15.00;;;10.80;;
27313;SDS011;14800;48.174;9.798;2023-02-28T16:26:29;13.38;;;10.50;;
27313;SDS011;14800;48.174;9.798;2023-02-28T16:28:55;13.88;;;10.40;;
27313;SDS011;14800;48.174;9.798;2023-02-28T16:31:21;16.10;;;10.55;;
27313;SDS011;14800;48.174;9.798;2023-02-28T16:33:46;15.50;;;10.52;;
27313;SDS011;14800;48.174;9.798;2023-02-28T16:36:16;17.05;;;11.52;;
27313;SDS011;14800;48.174;9.798;2023-02-28T16:38:43;16.10;;;10.95;;
27313;SDS011;14800;48.174;9.798;2023-02-28T16:41:11;17.65;;;11.18;;
27313;SDS011;14800;48.174;9.798;2023-02-28T16:43:43;15.63;;;10.57;;
27313;SDS011;14800;48.174;9.798;2023-02-28T16:46:14;14.95;;;10.77;;
27313;SDS011;14800;48.174;9.798;2023-02-28T16:48:40;15.60;;;10.98;;
27313;SDS011;14800;48.174;9.798;2023-02-28T16:51:08;14.77;;;10.70;;
27313;SDS011;14800;48.174;9.798;2023-02-28T16:53:37;19.50;;;11.45;;
27313;SDS011;14800;48.174;9.798;2023-02-28T16:56:03;16.55;;;10.95;;
27313;SDS011;14800;48.174;9.798;2023-02-28T16:58:30;13.43;;;10.02;;
27313;SDS011;14800;48.174;9.798;2023-02-28T17:00:56;15.93;;;10.13;;
27313;SDS011;14800;48.174;9.798;2023-02-28T17:03:27;16.55;;;10.63;;
27313;SDS011;14800;48.174;9.798;2023-02-28T17:05:54;16.05;;;10.93;;
27313;SDS011;14800;48.174;9.798;2023-02-28T17:08:20;17.08;;;10.27;;
27313;SDS011;14800;48.174;9.798;2023-02-28T17:10:45;17.75;;;11.18;;
27313;SDS011;14800;48.174;9.798;2023-02-28T17:13:12;16.02;;;10.90;;
27313;SDS011;14800;48.174;9.798;2023-02-28T17:15:38;15.38;;;10.88;;
27313;SDS011;14800;48.174;9.798;2023-02-28T17:18:05;17.50;;;10.70;;
27313;SDS011;14800;48.174;9.798;2023-02-28T17:20:31;17.10;;;11.35;;
27313;SDS011;14800;48.174;9.798;2023-02-28T17:22:57;14.43;;;10.43;;
27313;SDS011;14800;48.174;9.798;2023-02-28T17:25:23;14.27;;;10.43;;
27313;SDS011;14800;48.174;9.798;2023-02-28T17:27:49;17.35;;;10.98;;
27313;SDS011;14800;48.174;9.798;2023-02-28T17:30:19;17.65;;;11.70;;
27313;SDS011;14800;48.174;9.798;2023-02-28T17:32:44;18.30;;;11.23;;
27313;SDS011;14800;48.174;9.798;2023-02-28T17:35:10;15.52;;;10.82;;